Airfield :
LOGIN :

Register | Disclaimer

   EN    FR    IT 

 










Legend :    VFR   Marginal VFR   IFR   Intensive IFR   Very Intensive IFR
Visi :
Ceiling :
>= 8 km
>= 3000ft
5 to 8 km
1000 to 3000 ft
1500m to 5 km
500 to 1000 ft
800 to 1500m
200 to 500 ft
< 800m
< 200 ft
Symbols :   Thunderstorms  Fog  Heavy snow  Heavy precipitations  Wind > 20 kt
SIGMETs :     Misc.  Thunderstorms  Icing  Turbulence  Mountain Waves  Volcanic Ashes






- Airport Elevation : 525 ft
- IATA code : VAF


LFLU - Valence

CURRENT METAR :
  • 021300Z AUTO 34006KT 9999 -RA OVC016/// ///CB 05/03 Q1016

EXPIRED METARs :
  • 021230Z AUTO 34008KT 9999 OVC014/// ///TCU 05/03 Q1016
  • 021200Z AUTO 33007KT 7000 OVC012 05/04 Q1016
  • 021130Z AUTO 33007KT 8000 -RA OVC017/// ///TCU 05/03 Q1017
  • 021100Z AUTO 34007KT 9999 OVC019 05/03 Q1017
  • 021030Z AUTO 35007KT 9999 OVC020/// ///TCU 05/03 Q1017

TAF N/A



MET'MAP, your aeronautical weather chart ! - Copyright ORBIFLY December 2007 - Disclaimer

ORBIFLY MET'MAP TEAM :

Programming & Development : Alexandra Zaïnal
Original concept : Baudouin d'Aumeries
Technical & hardware support : Manuel Goepfert
Assistance : Marc-Olivier Méhu




SOURCES & CREDITS :

   NOAA